createdAt,value
2022-10-05T00:01:27.534Z,85.63
2022-10-05T00:04:01.911Z,85.68
2022-10-05T00:06:30.692Z,85.57
2022-10-05T00:09:00.899Z,85.50
2022-10-05T00:11:29.702Z,85.53
2022-10-05T00:13:58.936Z,85.63
2022-10-05T00:16:29.030Z,85.86
2022-10-05T00:18:59.929Z,86.05
2022-10-05T00:21:29.480Z,86.18
2022-10-05T00:24:00.610Z,86.36
2022-10-05T00:26:33.301Z,86.48
2022-10-05T00:29:06.520Z,86.71
2022-10-05T00:31:36.490Z,86.92
2022-10-05T00:34:05.034Z,87.14
2022-10-05T00:36:33.418Z,87.21
2022-10-05T00:39:03.451Z,87.26
2022-10-05T00:41:51.836Z,87.14
2022-10-05T00:44:32.952Z,87.24
2022-10-05T00:47:10.865Z,87.13
2022-10-05T00:50:17.687Z,87.28
2022-10-05T00:52:56.217Z,87.39
2022-10-05T00:55:37.488Z,87.39
2022-10-05T00:58:17.015Z,87.51
2022-10-05T01:00:53.940Z,87.57
2022-10-05T01:03:30.601Z,87.63
2022-10-05T01:06:09.855Z,87.63
2022-10-05T01:08:50.487Z,87.63
2022-10-05T01:11:26.392Z,87.74
2022-10-05T01:14:03.222Z,87.64
2022-10-05T01:16:42.370Z,87.53
2022-10-05T01:19:31.075Z,87.53
2022-10-05T01:22:07.737Z,87.51
2022-10-05T01:24:49.675Z,87.49
2022-10-05T01:27:34.924Z,87.52
2022-10-05T01:30:10.576Z,87.64
2022-10-05T01:32:44.864Z,87.64
2022-10-05T01:35:24.111Z,87.67
2022-10-05T01:38:04.396Z,87.76
2022-10-05T01:40:38.479Z,87.91
2022-10-05T01:43:14.633Z,87.93
2022-10-05T01:45:54.657Z,87.95
2022-10-05T01:48:32.742Z,88.06
2022-10-05T01:51:08.698Z,88.00
2022-10-05T01:53:49.517Z,88.10
2022-10-05T01:56:29.926Z,88.09
2022-10-05T01:59:11.538Z,88.01
2022-10-05T02:01:48.450Z,88.01
2022-10-05T02:04:56.604Z,88.00
2022-10-05T02:07:16.595Z,87.92
2022-10-05T02:09:49.999Z,87.97
2022-10-05T02:12:22.096Z,88.04
2022-10-05T02:14:57.480Z,88.10
2022-10-05T02:17:32.101Z,88.16
2022-10-05T02:20:03.525Z,88.31
2022-10-05T02:22:36.594Z,88.35
2022-10-05T02:25:10.938Z,88.46
2022-10-05T02:27:44.516Z,88.52
2022-10-05T02:30:16.611Z,88.63
2022-10-05T02:32:53.984Z,88.69
2022-10-05T02:35:22.625Z,88.59
2022-10-05T02:37:59.676Z,88.63
2022-10-05T02:40:40.131Z,88.58
2022-10-05T02:43:20.626Z,88.64
2022-10-05T02:45:57.523Z,88.58
2022-10-05T02:48:36.567Z,88.57
2022-10-05T02:51:19.765Z,88.72
2022-10-05T02:53:59.985Z,88.59
2022-10-05T02:56:36.123Z,88.71
2022-10-05T02:59:10.807Z,88.70
2022-10-05T03:01:47.439Z,88.65
2022-10-05T03:04:25.843Z,88.66
2022-10-05T03:20:16.354Z,87.44
2022-10-05T03:22:56.273Z,87.79
2022-10-05T03:25:55.899Z,87.84
2022-10-05T03:28:33.801Z,87.84
2022-10-05T03:31:15.950Z,88.05
2022-10-05T03:33:53.765Z,88.24
2022-10-05T03:36:34.155Z,88.41
2022-10-05T03:39:11.691Z,88.55
2022-10-05T03:41:48.824Z,88.77
2022-10-05T03:44:32.940Z,88.85
2022-10-05T03:47:25.773Z,88.89
2022-10-05T03:50:17.373Z,89.04
2022-10-05T03:52:56.077Z,89.05
2022-10-05T03:55:34.921Z,89.17
2022-10-05T03:58:14.833Z,89.25
2022-10-05T04:00:54.122Z,89.24
2022-10-05T04:03:31.440Z,89.47
2022-10-05T04:06:10.298Z,89.45
2022-10-05T04:08:50.753Z,89.45
2022-10-05T04:11:29.963Z,89.50
2022-10-05T04:14:08.244Z,89.60
2022-10-05T04:16:46.086Z,89.78
2022-10-05T04:19:23.673Z,89.73
2022-10-05T04:22:06.315Z,89.83
2022-10-05T04:24:42.235Z,89.92
2022-10-05T04:27:20.733Z,89.99
2022-10-05T04:29:59.520Z,89.95
2022-10-05T04:32:38.960Z,90.11
2022-10-05T04:35:40.171Z,90.28
2022-10-05T04:38:28.391Z,90.44
2022-10-05T04:41:14.597Z,90.55
2022-10-05T04:43:57.591Z,90.55
2022-10-05T04:46:45.164Z,90.58
2022-10-05T04:49:42.540Z,90.64
2022-10-05T04:52:23.429Z,90.66
2022-10-05T04:55:13.512Z,90.66
2022-10-05T04:57:57.670Z,90.63
2022-10-05T05:00:39.219Z,90.72
2022-10-05T05:03:39.375Z,90.81
2022-10-05T05:06:24.569Z,90.89
2022-10-05T05:09:15.163Z,90.91
2022-10-05T05:12:03.904Z,90.98
2022-10-05T05:14:47.795Z,91.30
2022-10-05T05:17:33.049Z,91.40
2022-10-05T05:20:18.435Z,91.50
2022-10-05T05:22:58.598Z,91.59
2022-10-05T05:25:41.492Z,91.61
2022-10-05T05:28:26.552Z,91.79
2022-10-05T05:31:06.744Z,91.70
2022-10-05T05:33:52.160Z,91.66
2022-10-05T05:36:39.278Z,91.54
2022-10-05T05:39:24.817Z,91.35
2022-10-05T05:42:02.870Z,91.26
2022-10-05T05:44:43.369Z,91.35
2022-10-05T05:47:21.703Z,91.25
2022-10-05T05:50:07.814Z,90.83
2022-10-05T05:52:45.980Z,90.53
2022-10-05T05:55:29.726Z,90.40
2022-10-05T05:58:05.643Z,90.30
2022-10-05T06:00:44.116Z,90.30
2022-10-05T06:03:22.482Z,90.11
2022-10-05T06:05:58.834Z,89.79
2022-10-05T06:08:34.959Z,89.55
2022-10-05T06:11:18.732Z,89.26
2022-10-05T06:13:51.749Z,88.99
2022-10-05T06:16:29.734Z,88.69
2022-10-05T06:19:06.878Z,88.51
2022-10-05T06:21:45.472Z,88.39
2022-10-05T06:24:22.963Z,88.56
2022-10-05T06:27:24.533Z,88.26
2022-10-05T06:30:07.637Z,88.03
2022-10-05T06:33:05.511Z,87.87
2022-10-05T06:35:53.756Z,87.91
2022-10-05T06:38:44.988Z,87.83
2022-10-05T06:41:28.576Z,87.80
2022-10-05T06:44:05.270Z,87.83
2022-10-05T06:47:07.512Z,87.67
2022-10-05T06:49:59.548Z,87.77
2022-10-05T06:52:56.832Z,88.00
2022-10-05T06:55:38.773Z,88.15
2022-10-05T06:58:26.527Z,87.78
2022-10-05T07:01:06.112Z,87.27
2022-10-05T07:03:48.420Z,86.06
2022-10-05T07:06:26.600Z,84.35
2022-10-05T07:09:14.311Z,82.52
2022-10-05T07:12:04.566Z,81.46
2022-10-05T07:14:44.531Z,78.47
2022-10-05T07:17:36.666Z,78.27
2022-10-05T07:20:20.199Z,77.97
2022-10-05T07:23:04.932Z,76.13
2022-10-05T07:25:43.222Z,74.00
2022-10-05T07:28:22.053Z,71.96
2022-10-05T07:31:00.016Z,70.68
2022-10-05T07:33:41.143Z,69.14
2022-10-05T07:36:38.368Z,66.97
2022-10-05T07:39:18.073Z,68.05
2022-10-05T07:41:56.240Z,68.15
2022-10-05T07:44:37.660Z,68.59
2022-10-05T07:47:17.094Z,67.53
2022-10-05T07:49:56.564Z,67.63
2022-10-05T07:52:34.865Z,67.63
2022-10-05T07:55:17.991Z,68.38
2022-10-05T07:57:55.583Z,68.12
2022-10-05T08:00:41.604Z,67.24
2022-10-05T08:03:25.098Z,68.21
2022-10-05T08:05:58.969Z,68.17
2022-10-05T08:08:39.575Z,67.22
2022-10-05T08:11:18.180Z,67.19
2022-10-05T08:13:55.870Z,66.67
2022-10-05T08:16:31.108Z,66.85
2022-10-05T08:19:09.221Z,66.73
2022-10-05T08:21:46.189Z,67.24
2022-10-05T08:24:31.976Z,67.18
2022-10-05T08:27:06.589Z,67.71
2022-10-05T08:29:44.521Z,67.85
2022-10-05T08:32:23.945Z,68.01
2022-10-05T08:35:00.784Z,67.99
2022-10-05T08:37:38.337Z,68.04
2022-10-05T08:40:31.034Z,68.31
2022-10-05T08:43:17.727Z,67.89
2022-10-05T08:46:24.390Z,68.17
2022-10-05T08:49:20.121Z,68.13
2022-10-05T08:52:25.231Z,68.48
2022-10-05T08:55:16.572Z,68.29
2022-10-05T08:58:13.221Z,68.02
2022-10-05T09:00:56.024Z,67.26
2022-10-05T09:03:51.858Z,67.66
2022-10-05T09:06:35.862Z,66.73
2022-10-05T09:09:26.819Z,66.45
2022-10-05T09:12:18.930Z,65.37
2022-10-05T09:15:01.516Z,65.30
2022-10-05T09:18:11.843Z,63.57
2022-10-05T09:20:54.236Z,62.82
2022-10-05T09:23:40.345Z,62.49
2022-10-05T09:26:42.951Z,61.45
2022-10-05T09:29:57.788Z,60.65
2022-10-05T09:33:09.911Z,60.75
2022-10-05T09:36:11.109Z,60.55
2022-10-05T09:39:08.438Z,61.33
2022-10-05T09:42:05.885Z,60.62
2022-10-05T09:45:03.429Z,60.51
2022-10-05T09:48:07.722Z,59.45
2022-10-05T09:51:04.881Z,59.46
2022-10-05T09:53:55.367Z,57.30
2022-10-05T09:56:53.931Z,57.84
2022-10-05T09:59:48.729Z,57.55
2022-10-05T10:02:42.435Z,57.23
2022-10-05T10:05:40.134Z,56.38
2022-10-05T10:08:27.842Z,54.83
2022-10-05T10:11:15.577Z,54.55
2022-10-05T10:14:02.774Z,55.31
2022-10-05T10:17:05.409Z,54.95
2022-10-05T10:20:16.529Z,54.91
2022-10-05T10:23:15.443Z,55.63
2022-10-05T10:26:16.399Z,55.49
2022-10-05T10:29:11.357Z,55.30
2022-10-05T10:32:03.916Z,55.39
2022-10-05T10:35:07.835Z,56.27
2022-10-05T10:37:58.673Z,57.13
2022-10-05T10:40:43.280Z,56.08
2022-10-05T10:43:43.842Z,55.59
2022-10-05T10:46:34.485Z,56.26
2022-10-05T10:49:26.453Z,55.57
2022-10-05T10:52:07.166Z,54.63
2022-10-05T10:55:04.930Z,53.94
2022-10-05T10:57:48.252Z,53.13
2022-10-05T11:00:41.802Z,54.60
2022-10-05T11:03:52.991Z,54.57
2022-10-05T11:06:47.767Z,53.75
2022-10-05T11:09:54.576Z,52.41
2022-10-05T11:12:53.693Z,51.63
2022-10-05T11:16:01.948Z,52.19
2022-10-05T11:18:48.233Z,52.64
2022-10-05T11:21:31.923Z,53.20
2022-10-05T11:24:48.636Z,53.73
2022-10-05T11:27:38.247Z,54.04
2022-10-05T11:30:26.822Z,54.52
2022-10-05T11:33:44.728Z,54.24
2022-10-05T11:36:40.803Z,54.17
2022-10-05T11:39:33.188Z,54.11
2022-10-05T11:42:39.789Z,54.53
2022-10-05T11:45:33.089Z,54.70
2022-10-05T11:48:23.208Z,54.57
2022-10-05T11:51:25.224Z,55.43
2022-10-05T11:54:17.633Z,55.42
2022-10-05T11:56:57.029Z,56.03
2022-10-05T11:59:36.289Z,56.09
2022-10-05T12:02:33.135Z,55.92
2022-10-05T12:05:18.390Z,56.24
2022-10-05T12:08:06.668Z,56.15
2022-10-05T12:10:45.980Z,56.01
2022-10-05T12:13:28.976Z,56.23
2022-10-05T12:16:06.312Z,55.86
2022-10-05T12:19:01.210Z,55.88
2022-10-05T12:21:38.118Z,55.68
2022-10-05T12:24:25.943Z,55.89
2022-10-05T12:27:03.921Z,56.03
2022-10-05T12:29:43.862Z,56.11
2022-10-05T12:32:22.316Z,56.01
2022-10-05T12:35:02.232Z,55.87
2022-10-05T12:37:52.785Z,55.68
2022-10-05T12:40:35.045Z,55.61
2022-10-05T12:43:16.802Z,55.92
2022-10-05T12:46:04.046Z,55.62
2022-10-05T12:48:52.588Z,55.88
2022-10-05T12:51:35.542Z,55.88
2022-10-05T12:54:20.050Z,56.00
2022-10-05T12:56:58.109Z,56.07
2022-10-05T12:59:41.230Z,56.56
2022-10-05T13:02:30.373Z,56.60
2022-10-05T13:05:13.928Z,56.71
2022-10-05T13:07:59.782Z,56.74
2022-10-05T13:10:37.235Z,56.96
2022-10-05T13:13:38.476Z,56.80
2022-10-05T13:16:30.019Z,56.66
2022-10-05T13:19:22.221Z,56.75
2022-10-05T13:22:08.573Z,56.88
2022-10-05T13:24:49.456Z,57.23
2022-10-05T13:27:27.835Z,57.05
2022-10-05T13:30:06.738Z,57.24
2022-10-05T13:32:45.855Z,56.95
2022-10-05T13:35:30.796Z,57.00
2022-10-05T13:38:19.760Z,56.69
2022-10-05T13:41:04.364Z,56.73
2022-10-05T13:43:44.932Z,56.44
2022-10-05T13:46:25.118Z,56.23
2022-10-05T13:49:12.086Z,56.78
2022-10-05T13:51:53.588Z,56.97
2022-10-05T13:54:32.812Z,57.32
2022-10-05T13:57:21.199Z,57.09
2022-10-05T13:59:58.519Z,57.15
2022-10-05T14:02:37.047Z,57.31
2022-10-05T14:05:20.548Z,57.57
2022-10-05T14:07:55.890Z,57.38
2022-10-05T14:10:40.161Z,57.65
2022-10-05T14:13:26.477Z,57.65
2022-10-05T14:16:09.135Z,57.89
2022-10-05T14:18:52.473Z,58.12
2022-10-05T14:21:26.021Z,58.17
2022-10-05T14:24:32.039Z,58.35
2022-10-05T14:27:22.346Z,58.02
2022-10-05T14:30:03.369Z,58.30
2022-10-05T14:32:49.542Z,58.49
2022-10-05T14:35:24.089Z,58.74
2022-10-05T14:38:01.016Z,58.86
2022-10-05T14:40:36.271Z,59.11
2022-10-05T14:43:21.752Z,58.83
2022-10-05T14:46:01.588Z,58.69
2022-10-05T14:48:44.324Z,58.91
2022-10-05T14:51:31.799Z,58.81
2022-10-05T14:54:22.987Z,58.94
2022-10-05T14:57:06.470Z,58.98
2022-10-05T14:59:53.852Z,58.98
2022-10-05T15:02:55.899Z,59.26
2022-10-05T15:05:32.721Z,59.68
2022-10-05T15:08:16.023Z,59.90
2022-10-05T15:11:02.617Z,59.81
2022-10-05T15:13:38.555Z,59.87
2022-10-05T15:16:20.060Z,60.03
2022-10-05T15:19:04.782Z,60.42
2022-10-05T15:21:56.617Z,60.52
2022-10-05T15:24:44.120Z,60.47
2022-10-05T15:27:37.827Z,60.61
2022-10-05T15:30:18.003Z,60.76
2022-10-05T15:33:05.508Z,61.02
2022-10-05T15:36:00.517Z,61.18
2022-10-05T15:38:41.145Z,61.64
2022-10-05T15:41:21.138Z,62.04
2022-10-05T15:47:02.369Z,62.85
2022-10-05T15:49:40.850Z,63.17
2022-10-05T15:52:24.077Z,63.33
2022-10-05T15:55:38.308Z,63.39
2022-10-05T15:58:35.664Z,63.64
2022-10-05T16:01:12.016Z,63.71
2022-10-05T16:03:52.208Z,63.94
2022-10-05T16:06:56.458Z,64.20
2022-10-05T16:09:43.574Z,64.55
2022-10-05T16:12:30.586Z,64.83
2022-10-05T16:15:16.916Z,65.34
2022-10-05T16:18:04.498Z,65.65
2022-10-05T16:20:50.137Z,65.82
2022-10-05T16:23:34.168Z,66.00
2022-10-05T16:26:26.875Z,66.33
2022-10-05T16:29:05.484Z,66.60
2022-10-05T16:31:47.228Z,66.71
2022-10-05T16:34:32.151Z,66.85
2022-10-05T16:37:14.076Z,67.07
2022-10-05T16:39:57.544Z,67.22
2022-10-05T16:42:43.180Z,67.43
2022-10-05T16:45:45.017Z,67.51
2022-10-05T16:48:26.252Z,67.80
2022-10-05T16:51:14.955Z,67.86
2022-10-05T16:53:53.734Z,68.08
2022-10-05T16:56:29.912Z,68.28
2022-10-05T16:59:18.153Z,68.41
2022-10-05T17:02:02.288Z,68.45
2022-10-05T17:04:46.147Z,68.65
2022-10-05T17:07:35.214Z,68.65
2022-10-05T17:10:42.977Z,68.90
2022-10-05T17:13:32.584Z,68.88
2022-10-05T17:16:12.118Z,69.11
2022-10-05T17:19:21.941Z,69.25
2022-10-05T17:22:00.879Z,69.24
2022-10-05T17:24:50.153Z,69.18
2022-10-05T17:27:32.459Z,69.42
2022-10-05T17:30:23.651Z,69.27
2022-10-05T17:33:04.734Z,69.18
2022-10-05T17:35:53.450Z,69.38
2022-10-05T17:38:42.866Z,69.37
2022-10-05T17:41:23.630Z,69.36
2022-10-05T17:44:20.508Z,69.55
2022-10-05T17:46:56.082Z,69.73
2022-10-05T17:50:13.412Z,69.73
2022-10-05T17:53:23.835Z,69.88
2022-10-05T17:56:06.526Z,70.27
2022-10-05T17:59:04.807Z,70.34
2022-10-05T18:01:39.910Z,70.52
2022-10-05T18:04:42.322Z,70.55
2022-10-05T18:07:25.655Z,70.69
2022-10-05T18:10:00.668Z,71.25
2022-10-05T18:13:12.749Z,71.28
2022-10-05T18:15:46.052Z,71.55
2022-10-05T18:18:38.758Z,71.95
2022-10-05T18:21:31.215Z,72.03
2022-10-05T18:24:36.942Z,72.23
2022-10-05T18:27:52.076Z,72.52
2022-10-05T18:30:27.258Z,72.75
2022-10-05T18:33:25.329Z,72.79
2022-10-05T18:36:20.523Z,73.14
2022-10-05T18:39:04.063Z,73.16
2022-10-05T18:41:56.291Z,73.43
2022-10-05T18:44:40.193Z,73.52
2022-10-05T18:47:23.877Z,73.56
2022-10-05T18:50:15.383Z,73.86
2022-10-05T18:53:03.537Z,73.99
2022-10-05T18:55:46.550Z,74.23
2022-10-05T18:58:35.992Z,74.32
2022-10-05T19:01:37.967Z,74.32
2022-10-05T19:04:29.170Z,74.40
2022-10-05T19:07:20.785Z,74.62
2022-10-05T19:10:04.328Z,74.60
2022-10-05T19:12:50.172Z,74.65
2022-10-05T19:15:31.904Z,74.80
2022-10-05T19:18:19.330Z,74.89
2022-10-05T19:20:59.476Z,74.63
2022-10-05T19:23:53.804Z,74.84
2022-10-05T19:26:50.062Z,75.06
2022-10-05T19:29:35.407Z,75.04
2022-10-05T19:32:19.712Z,75.15
2022-10-05T19:35:07.201Z,75.27
2022-10-05T19:37:53.876Z,75.21
2022-10-05T19:40:36.630Z,75.43
2022-10-05T19:43:26.442Z,75.65
2022-10-05T19:46:19.933Z,75.86
2022-10-05T19:48:56.813Z,75.90
2022-10-05T19:51:39.534Z,75.96
2022-10-05T19:54:24.924Z,76.12
2022-10-05T19:57:13.226Z,76.08
2022-10-05T19:59:49.425Z,76.23
2022-10-05T20:02:28.592Z,76.28
2022-10-05T20:05:09.342Z,76.23
2022-10-05T20:07:41.832Z,76.18
2022-10-05T20:10:30.894Z,76.21
2022-10-05T20:13:17.479Z,76.28
2022-10-05T20:16:27.094Z,76.19
2022-10-05T20:19:17.334Z,76.14
2022-10-05T20:21:51.641Z,76.38
2022-10-05T20:24:25.793Z,76.12
2022-10-05T20:27:16.116Z,75.96
2022-10-05T20:29:48.588Z,76.04
2022-10-05T20:32:20.717Z,75.89
2022-10-05T20:34:55.574Z,76.04
2022-10-05T20:37:28.063Z,75.94
2022-10-05T20:40:00.410Z,75.98
2022-10-05T20:42:32.502Z,76.04
2022-10-05T20:45:06.455Z,76.06
2022-10-05T20:47:39.037Z,76.03
2022-10-05T20:50:12.621Z,76.02
2022-10-05T20:52:44.721Z,76.12
2022-10-05T20:55:15.210Z,76.10
2022-10-05T20:57:48.682Z,76.24
2022-10-05T21:00:20.601Z,76.21
2022-10-05T21:02:52.658Z,76.32
2022-10-05T21:05:23.100Z,76.37
2022-10-05T21:07:55.045Z,76.29
2022-10-05T21:10:25.462Z,76.27
2022-10-05T21:12:57.566Z,76.36
2022-10-05T21:15:29.505Z,76.48
2022-10-05T21:18:01.788Z,76.30
2022-10-05T21:20:34.623Z,76.24
2022-10-05T21:23:06.385Z,76.31
2022-10-05T21:25:39.012Z,76.22
2022-10-05T21:28:11.275Z,76.40
2022-10-05T21:30:43.527Z,76.34
2022-10-05T21:33:15.415Z,76.14
2022-10-05T21:35:48.028Z,76.34
2022-10-05T21:38:20.200Z,76.33
2022-10-05T21:40:52.156Z,76.21
2022-10-05T21:43:22.565Z,76.29
2022-10-05T21:45:55.204Z,76.37
2022-10-05T21:48:27.756Z,76.35
2022-10-05T21:51:00.633Z,76.55
2022-10-05T21:53:34.903Z,76.45
2022-10-05T21:56:10.636Z,76.45
2022-10-05T21:58:45.500Z,76.50
2022-10-05T22:01:22.426Z,76.52
2022-10-05T22:03:54.994Z,76.54
2022-10-05T22:06:27.315Z,76.76
2022-10-05T22:08:58.151Z,76.57
2022-10-05T22:11:30.993Z,76.74
2022-10-05T22:14:03.217Z,76.67
2022-10-05T22:16:38.713Z,76.75
2022-10-05T22:19:17.462Z,76.83
2022-10-05T22:21:49.436Z,76.91
2022-10-05T22:24:19.851Z,76.78
2022-10-05T22:26:52.862Z,76.84
2022-10-05T22:29:24.784Z,76.76
2022-10-05T22:31:59.209Z,76.92
2022-10-05T22:34:31.327Z,76.90
2022-10-05T22:37:02.202Z,76.85
2022-10-05T22:39:34.020Z,77.04
2022-10-05T22:42:06.845Z,77.15
2022-10-05T22:44:39.147Z,77.05
2022-10-05T22:47:11.454Z,76.99
2022-10-05T22:49:43.287Z,77.19
2022-10-05T22:52:15.197Z,77.00
2022-10-05T22:54:45.685Z,77.08
2022-10-05T22:57:17.809Z,77.31
2022-10-05T22:59:49.727Z,77.19
2022-10-05T23:02:21.656Z,77.27
2022-10-05T23:04:52.233Z,77.34
2022-10-05T23:07:24.395Z,77.40
2022-10-05T23:09:54.904Z,77.29
2022-10-05T23:12:26.717Z,77.44
2022-10-05T23:14:58.527Z,77.57
2022-10-05T23:17:33.540Z,77.70
2022-10-05T23:20:06.481Z,77.72
2022-10-05T23:22:41.366Z,77.66
2022-10-05T23:25:14.085Z,77.72
2022-10-05T23:27:46.120Z,77.58
2022-10-05T23:30:17.998Z,77.56
2022-10-05T23:32:49.815Z,77.64
2022-10-05T23:35:21.826Z,77.63
2022-10-05T23:37:53.998Z,77.66
2022-10-05T23:40:24.375Z,77.77
2022-10-05T23:42:56.200Z,77.79
2022-10-05T23:45:27.996Z,77.74
2022-10-05T23:47:59.909Z,77.98
2022-10-05T23:50:30.446Z,77.89
2022-10-05T23:53:02.364Z,78.01
2022-10-05T23:55:32.926Z,78.04
2022-10-05T23:58:05.185Z,78.19
